Billings, MT

11:57 PM MDT on April 18, 2015 (GMT -0600)
MesoWest | | Change Station
CLOSE
Current Station
Personal Weather Station
Location: Billings, MT
Elevation: 3250 ft
Nearby Weather Stations

Elev 3250 ft 45.79 °N, 108.47 °W | Updated 53 minutes ago

Partly Cloudy
Partly Cloudy
43 °F
Feels Like 40 °F
N
5
Wind Variable Wind from North
Gusts 9.0 mph

Today
High -- | Low -- °F
--% Chance of Precip.
Yesterday
High -- | Low -- °F
Precip. -- in
6:23 AM 8:04 PM
New Moon, 0% visible
Pressure 30.24 in
Visibility 10.0 miles
Clouds Few 7500 ft
Windchill 40 °F
Dew Point 23 °F
Humidity 44%
Rainfall in
Snow Depth Not available.
UV 0 out of 12
Pollen 9.10 out of 12
Air Quality Not available.
Flu Activity Regional
METAR KBIL 190453Z 33011KT 10SM FEW075 04/M03 A3024 RMK AO2 SLP238 T00441028

More Conditions Fewer Conditions

Pressure 30.24 in
Visibility 10.0 miles
Clouds Few 7500 ft
Windchill 40 °F
Dew Point 23 °F
Humidity 44%
Rainfall in
Snow Depth Not available.
UV 0 out of 12
Pollen 9.10 out of 12
Air Quality Not available.
Flu Activity Regional
METAR KBIL 190453Z 33011KT 10SM FEW075 04/M03 A3024 RMK AO2 SLP238 T00441028

More Conditions Fewer Conditions

10-Day Weather Forecast

Almanac

Astronomy

Apr. 18, 2015 Rise Set
Actual Time
Civil Twilight
Nautical Twilight
Astronomical Twilight
Moon
Length of Visible Light
Length of Day
Tomorrow will be .
, % of the Moon is Illuminated

Today's Extremes

State Highs State Lows

Community

WunderPhotos

Upload Photos

1,814,725 photos uploaded!

WunderBlogs® & News

Nearby

Air Quality

  Air Quality AQ Index Pollutant
Not available.

Snow Depth

Station Depth Elevation

Earthquake Activity

City Distance Mag. Time & Date
Minimum magnitude displayed is 2.5.

Coastal Water Temperatures

Place Temperature

Stations

Nearby Weather Stations

Station Location Temp. Windchill Dew Point Humidity Wind Precip. Elev Updated Type